createdAt,value
2023-04-16T00:01:44.554Z,8.82
2023-04-16T00:04:14.556Z,10.00
2023-04-16T00:06:43.199Z,11.45
2023-04-16T00:09:12.118Z,11.82
2023-04-16T00:11:40.911Z,11.80
2023-04-16T00:14:09.770Z,9.85
2023-04-16T00:16:38.707Z,10.15
2023-04-16T00:19:08.078Z,11.23
2023-04-16T00:21:39.966Z,10.15
2023-04-16T00:24:08.497Z,9.77
2023-04-16T00:26:37.359Z,12.73
2023-04-16T00:29:06.260Z,11.75
2023-04-16T00:31:35.814Z,12.32
2023-04-16T00:34:04.636Z,10.75
2023-04-16T00:36:33.197Z,11.48
2023-04-16T00:39:03.791Z,12.80
2023-04-16T00:41:32.676Z,12.35
2023-04-16T00:44:01.384Z,11.73
2023-04-16T00:46:30.244Z,12.27
2023-04-16T00:48:59.397Z,12.40
2023-04-16T00:51:28.001Z,11.27
2023-04-16T00:53:56.958Z,11.13
2023-04-16T00:56:26.879Z,12.05
2023-04-16T00:58:56.582Z,10.57
2023-04-16T01:01:25.630Z,10.65
2023-04-16T01:03:54.069Z,12.13
2023-04-16T01:06:22.780Z,11.70
2023-04-16T01:08:51.586Z,11.70
2023-04-16T01:11:21.097Z,11.70
2023-04-16T01:13:51.508Z,11.85
2023-04-16T01:16:20.388Z,12.50
2023-04-16T01:18:49.296Z,12.52
2023-04-16T01:21:19.599Z,13.05
2023-04-16T01:23:48.312Z,14.55
2023-04-16T01:26:16.751Z,14.18
2023-04-16T01:28:45.394Z,14.15
2023-04-16T01:31:14.476Z,15.90
2023-04-16T01:33:43.395Z,16.15
2023-04-16T01:36:11.858Z,13.07
2023-04-16T01:38:42.142Z,13.45
2023-04-16T01:41:10.541Z,14.05
2023-04-16T01:43:40.299Z,14.95
2023-04-16T01:46:19.408Z,12.63
2023-04-16T01:48:48.621Z,12.43
2023-04-16T01:51:17.458Z,13.68
2023-04-16T01:53:48.068Z,13.68
2023-04-16T01:56:16.795Z,13.40
2023-04-16T01:58:46.190Z,15.05
2023-04-16T02:01:15.222Z,13.07
2023-04-16T02:03:44.505Z,13.38
2023-04-16T02:06:13.480Z,13.32
2023-04-16T02:08:42.350Z,13.23
2023-04-16T02:11:14.710Z,11.10
2023-04-16T02:13:43.455Z,12.27
2023-04-16T02:16:12.305Z,11.75
2023-04-16T02:18:41.033Z,11.60
2023-04-16T02:21:09.813Z,12.23
2023-04-16T02:23:41.089Z,12.25
2023-04-16T02:26:09.933Z,13.32
2023-04-16T02:28:41.055Z,12.50
2023-04-16T02:31:09.753Z,12.57
2023-04-16T02:33:38.450Z,13.27
2023-04-16T02:36:07.608Z,12.60
2023-04-16T02:38:37.521Z,16.90
2023-04-16T02:41:06.552Z,13.85
2023-04-16T02:43:34.918Z,15.75
2023-04-16T02:46:04.978Z,14.05
2023-04-16T02:48:33.617Z,14.05
2023-04-16T02:51:02.521Z,14.90
2023-04-16T02:53:31.209Z,12.95
2023-04-16T02:55:59.666Z,13.02
2023-04-16T02:58:28.926Z,14.88
2023-04-16T03:00:57.744Z,14.63
2023-04-16T03:03:28.238Z,17.40
2023-04-16T03:05:56.691Z,17.58
2023-04-16T03:08:25.721Z,14.45
2023-04-16T03:10:54.609Z,14.88
2023-04-16T03:13:23.409Z,13.02
2023-04-16T03:15:52.296Z,13.32
2023-04-16T03:18:20.731Z,15.32
2023-04-16T03:20:55.445Z,17.40
2023-04-16T03:23:24.008Z,14.82
2023-04-16T03:25:52.499Z,16.20
2023-04-16T03:28:21.363Z,15.07
2023-04-16T03:30:53.753Z,12.88
2023-04-16T03:33:22.918Z,13.63
2023-04-16T03:35:58.359Z,14.85
2023-04-16T03:38:27.410Z,14.65
2023-04-16T03:40:55.955Z,14.88
2023-04-16T03:43:24.463Z,15.77
2023-04-16T03:45:53.308Z,12.65
2023-04-16T03:48:21.873Z,15.60
2023-04-16T03:50:50.514Z,18.30
2023-04-16T03:53:20.654Z,15.32
2023-04-16T03:55:51.333Z,18.60
2023-04-16T03:58:21.546Z,14.43
2023-04-16T04:00:49.894Z,14.60
2023-04-16T04:03:19.062Z,15.02
2023-04-16T04:05:47.622Z,14.45
2023-04-16T04:08:16.070Z,13.30
2023-04-16T04:10:46.969Z,14.50
2023-04-16T04:13:15.847Z,16.45
2023-04-16T04:15:45.395Z,14.10
2023-04-16T04:18:14.229Z,15.20
2023-04-16T04:20:43.337Z,19.17
2023-04-16T04:23:12.033Z,18.75
2023-04-16T04:25:40.806Z,15.73
2023-04-16T04:28:11.176Z,15.50
2023-04-16T04:30:39.777Z,14.77
2023-04-16T04:33:08.718Z,15.05
2023-04-16T04:35:37.457Z,14.93
2023-04-16T04:38:06.671Z,18.35
2023-04-16T04:40:35.447Z,17.42
2023-04-16T04:43:04.045Z,18.50
2023-04-16T04:45:34.195Z,17.30
2023-04-16T04:48:03.050Z,18.92
2023-04-16T04:50:31.836Z,19.00
2023-04-16T04:53:00.586Z,19.27
2023-04-16T04:55:29.354Z,20.35
2023-04-16T04:57:58.095Z,19.65
2023-04-16T05:00:26.625Z,23.35
2023-04-16T05:02:56.876Z,19.30
2023-04-16T05:05:25.825Z,28.95
2023-04-16T05:07:54.811Z,21.02
2023-04-16T05:10:23.780Z,19.13
2023-04-16T05:12:52.783Z,20.27
2023-04-16T05:15:21.660Z,19.60
2023-04-16T05:17:51.651Z,19.67
2023-04-16T05:20:22.822Z,20.90
2023-04-16T05:22:51.385Z,19.50
2023-04-16T05:25:20.397Z,18.98
2023-04-16T05:27:49.222Z,19.88
2023-04-16T05:30:18.279Z,18.08
2023-04-16T05:32:49.358Z,17.83
2023-04-16T05:35:18.497Z,18.20
2023-04-16T05:37:48.313Z,16.85
2023-04-16T05:40:17.345Z,16.55
2023-04-16T05:42:46.165Z,16.83
2023-04-16T05:45:14.596Z,17.70
2023-04-16T05:47:43.467Z,14.82
2023-04-16T05:50:18.292Z,14.55
2023-04-16T05:52:49.211Z,13.75
2023-04-16T05:55:17.968Z,15.63
2023-04-16T05:57:46.710Z,14.73
2023-04-16T06:00:16.018Z,17.05
2023-04-16T06:02:45.043Z,13.15
2023-04-16T06:05:13.809Z,13.77
2023-04-16T06:07:42.283Z,14.90
2023-04-16T06:10:12.829Z,11.82
2023-04-16T06:12:41.799Z,12.35
2023-04-16T06:15:11.368Z,9.93
2023-04-16T06:17:40.220Z,11.18
2023-04-16T06:20:10.503Z,10.52
2023-04-16T06:22:39.497Z,10.48
2023-04-16T06:25:09.115Z,9.38
2023-04-16T06:27:39.388Z,9.65
2023-04-16T06:30:13.467Z,10.00
2023-04-16T06:32:44.987Z,8.98
2023-04-16T06:35:14.157Z,8.82
2023-04-16T06:37:42.620Z,10.38
2023-04-16T06:40:12.185Z,8.43
2023-04-16T06:42:44.824Z,10.10
2023-04-16T06:45:15.116Z,9.68
2023-04-16T06:47:43.601Z,8.98
2023-04-16T06:50:12.683Z,9.15
2023-04-16T06:52:42.025Z,8.85
2023-04-16T06:55:11.523Z,8.23
2023-04-16T06:57:44.440Z,8.25
2023-04-16T07:00:13.526Z,8.15
2023-04-16T07:02:42.747Z,10.02
2023-04-16T07:05:11.626Z,10.32
2023-04-16T07:07:40.706Z,9.60
2023-04-16T07:10:10.295Z,8.75
2023-04-16T07:12:39.217Z,8.18
2023-04-16T07:15:12.358Z,8.77
2023-04-16T07:17:41.174Z,8.75
2023-04-16T07:20:11.557Z,5.93
2023-04-16T07:22:40.513Z,8.98
2023-04-16T07:25:10.381Z,6.43
2023-04-16T07:27:42.005Z,6.03
2023-04-16T07:30:12.906Z,6.45
2023-04-16T07:32:41.509Z,5.85
2023-04-16T07:35:11.433Z,7.32
2023-04-16T07:37:40.099Z,7.18
2023-04-16T07:40:11.155Z,7.05
2023-04-16T07:42:40.020Z,6.15
2023-04-16T07:45:10.551Z,6.95
2023-04-16T07:47:40.872Z,7.13
2023-04-16T07:50:10.695Z,6.88
2023-04-16T07:52:41.510Z,7.45
2023-04-16T07:55:11.254Z,9.45
2023-04-16T07:57:40.079Z,7.13
2023-04-16T08:00:10.286Z,5.78
2023-04-16T08:02:40.544Z,6.72
2023-04-16T08:05:09.579Z,5.75
2023-04-16T08:07:38.452Z,6.85
2023-04-16T08:10:08.437Z,6.38
2023-04-16T08:12:37.029Z,5.05
2023-04-16T08:15:06.148Z,5.57
2023-04-16T08:17:35.050Z,5.63
2023-04-16T08:20:06.504Z,4.20
2023-04-16T08:22:37.784Z,4.88
2023-04-16T08:25:07.291Z,3.80
2023-04-16T08:27:36.116Z,4.28
2023-04-16T08:30:04.996Z,4.53
2023-04-16T08:32:33.578Z,5.07
2023-04-16T08:35:02.357Z,3.70
2023-04-16T08:37:32.639Z,7.68
2023-04-16T08:40:04.539Z,6.35
2023-04-16T08:42:37.224Z,4.47
2023-04-16T08:45:09.816Z,5.40
2023-04-16T08:47:38.289Z,5.60
2023-04-16T08:50:08.507Z,5.07
2023-04-16T08:52:41.193Z,3.92
2023-04-16T08:55:14.215Z,4.72
2023-04-16T08:57:48.905Z,6.78
2023-04-16T09:00:18.160Z,4.35
2023-04-16T09:02:47.481Z,3.15
2023-04-16T09:05:19.087Z,3.28
2023-04-16T09:07:50.217Z,2.72
2023-04-16T09:10:18.872Z,3.50
2023-04-16T09:12:47.886Z,2.72
2023-04-16T09:15:16.656Z,2.35
2023-04-16T09:17:45.434Z,3.33
2023-04-16T09:20:14.476Z,3.22
2023-04-16T09:22:44.708Z,3.28
2023-04-16T09:25:14.781Z,2.78
2023-04-16T09:27:43.820Z,3.42
2023-04-16T09:30:36.848Z,2.78
2023-04-16T09:33:16.807Z,3.10
2023-04-16T09:35:49.306Z,3.08
2023-04-16T09:38:18.155Z,3.08
2023-04-16T09:40:48.611Z,3.33
2023-04-16T09:43:19.866Z,3.80
2023-04-16T09:45:52.475Z,3.33
2023-04-16T09:48:31.124Z,3.15
2023-04-16T09:51:00.021Z,2.88
2023-04-16T09:53:30.009Z,4.50
2023-04-16T09:56:00.976Z,2.53
2023-04-16T09:58:30.165Z,2.42
2023-04-16T10:01:03.293Z,2.67
2023-04-16T10:03:32.943Z,2.63
2023-04-16T10:06:03.136Z,4.47
2023-04-16T10:08:32.317Z,2.15
2023-04-16T10:11:03.837Z,2.83
2023-04-16T10:13:33.609Z,4.35
2023-04-16T10:16:02.791Z,2.13
2023-04-16T10:18:31.894Z,3.00
2023-04-16T10:21:01.943Z,3.97
2023-04-16T10:23:30.861Z,1.75
2023-04-16T10:26:01.929Z,2.90
2023-04-16T10:28:35.336Z,2.75
2023-04-16T10:31:06.400Z,2.40
2023-04-16T10:33:37.551Z,1.58
2023-04-16T10:36:10.683Z,2.17
2023-04-16T10:38:43.518Z,2.92
2023-04-16T10:41:12.625Z,2.28
2023-04-16T10:43:44.411Z,3.53
2023-04-16T10:46:23.194Z,3.22
2023-04-16T10:48:54.714Z,2.45
2023-04-16T10:51:29.453Z,4.10
2023-04-16T10:53:59.922Z,3.67
2023-04-16T10:56:30.558Z,3.03
2023-04-16T10:59:00.541Z,4.10
2023-04-16T11:01:34.033Z,1.90
2023-04-16T11:04:23.439Z,2.35
2023-04-16T11:07:03.388Z,2.08
2023-04-16T11:09:53.765Z,3.45
2023-04-16T11:12:24.028Z,4.40
2023-04-16T11:14:55.107Z,2.80
2023-04-16T11:17:24.141Z,3.67
2023-04-16T11:19:53.610Z,2.85
2023-04-16T11:22:22.502Z,3.20
2023-04-16T11:24:56.317Z,2.60
2023-04-16T11:27:25.174Z,2.92
2023-04-16T11:30:02.347Z,3.17
2023-04-16T11:32:33.143Z,1.88
2023-04-16T11:35:03.846Z,3.03
2023-04-16T11:37:36.331Z,2.03
2023-04-16T11:40:06.974Z,3.47
2023-04-16T11:42:37.308Z,2.08
2023-04-16T11:45:09.295Z,4.15
2023-04-16T11:47:46.739Z,3.22
2023-04-16T11:50:21.161Z,2.28
2023-04-16T11:52:50.789Z,4.10
2023-04-16T11:55:19.399Z,3.47
2023-04-16T11:57:48.599Z,2.42
2023-04-16T12:00:19.161Z,3.25
2023-04-16T12:02:54.399Z,4.37
2023-04-16T12:05:32.106Z,2.25
2023-04-16T12:08:02.716Z,2.33
2023-04-16T12:10:31.599Z,2.75
2023-04-16T12:13:12.656Z,2.97
2023-04-16T12:15:49.532Z,2.38
2023-04-16T12:18:20.379Z,2.50
2023-04-16T12:20:49.175Z,3.25
2023-04-16T12:23:32.344Z,2.65
2023-04-16T12:26:10.910Z,2.85
2023-04-16T12:28:41.767Z,1.75
2023-04-16T12:31:12.056Z,1.73
2023-04-16T12:33:40.619Z,1.95
2023-04-16T12:36:19.072Z,2.63
2023-04-16T12:38:47.888Z,2.78
2023-04-16T12:41:16.208Z,2.67
2023-04-16T12:43:44.632Z,3.78
2023-04-16T12:46:15.315Z,2.88
2023-04-16T12:48:44.037Z,3.15
2023-04-16T12:51:12.925Z,3.15
2023-04-16T12:53:41.778Z,2.72
2023-04-16T12:56:10.633Z,2.65
2023-04-16T12:58:39.349Z,1.88
2023-04-16T13:01:08.365Z,2.53
2023-04-16T13:03:41.615Z,2.25
2023-04-16T13:06:10.291Z,2.50
2023-04-16T13:08:39.430Z,2.47
2023-04-16T13:11:08.219Z,3.38
2023-04-16T13:13:37.009Z,1.70
2023-04-16T13:16:08.451Z,4.25
2023-04-16T13:18:39.502Z,2.33
2023-04-16T13:21:08.377Z,1.60
2023-04-16T13:23:37.427Z,1.92
2023-04-16T13:26:06.364Z,1.80
2023-04-16T13:28:35.298Z,2.08
2023-04-16T13:31:05.698Z,2.55
2023-04-16T13:33:35.288Z,2.33
2023-04-16T13:36:06.344Z,3.00
2023-04-16T13:38:35.694Z,1.85
2023-04-16T13:41:04.768Z,1.92
2023-04-16T13:43:33.571Z,2.13
2023-04-16T13:46:02.144Z,1.95
2023-04-16T13:48:30.621Z,1.52
2023-04-16T13:50:59.561Z,1.27
2023-04-16T13:53:29.345Z,1.58
2023-04-16T13:55:57.898Z,2.65
2023-04-16T13:58:26.741Z,1.88
2023-04-16T14:00:56.148Z,1.42
2023-04-16T14:03:26.356Z,1.30
2023-04-16T14:05:55.142Z,1.67
2023-04-16T14:08:23.961Z,2.15
2023-04-16T14:10:55.810Z,2.40
2023-04-16T14:13:25.022Z,2.17
2023-04-16T14:15:55.781Z,1.83
2023-04-16T14:18:24.694Z,1.58
2023-04-16T14:20:53.635Z,1.58
2023-04-16T14:23:22.202Z,1.50
2023-04-16T14:25:50.733Z,1.77
2023-04-16T14:28:21.189Z,1.65
2023-04-16T14:30:49.910Z,2.30
2023-04-16T14:33:18.245Z,2.58
2023-04-16T14:35:46.941Z,2.25
2023-04-16T14:38:15.740Z,1.67
2023-04-16T14:40:44.605Z,2.05
2023-04-16T14:43:13.053Z,2.88
2023-04-16T14:45:43.638Z,2.95
2023-04-16T14:48:12.622Z,2.50
2023-04-16T14:50:44.011Z,2.42
2023-04-16T14:53:13.246Z,1.60
2023-04-16T14:55:42.477Z,2.65
2023-04-16T14:58:11.258Z,1.83
2023-04-16T15:00:40.058Z,1.80
2023-04-16T15:03:16.285Z,3.25
2023-04-16T15:05:45.122Z,1.35
2023-04-16T15:08:14.106Z,1.63
2023-04-16T15:10:43.363Z,3.08
2023-04-16T15:13:13.691Z,1.60
2023-04-16T15:15:42.419Z,1.42
2023-04-16T15:18:13.099Z,1.23
2023-04-16T15:20:43.347Z,1.88
2023-04-16T15:23:12.337Z,1.20
2023-04-16T15:25:41.530Z,2.30
2023-04-16T15:28:10.255Z,2.17
2023-04-16T15:30:40.475Z,1.40
2023-04-16T15:33:09.800Z,1.85
2023-04-16T15:35:41.442Z,2.58
2023-04-16T15:38:10.120Z,1.40
2023-04-16T15:40:38.575Z,1.73
2023-04-16T15:43:07.597Z,2.05
2023-04-16T15:45:39.206Z,2.40
2023-04-16T15:48:08.164Z,1.65
2023-04-16T15:50:36.720Z,2.08
2023-04-16T15:53:07.359Z,1.60
2023-04-16T15:55:36.705Z,1.70
2023-04-16T15:58:05.773Z,2.38
2023-04-16T16:00:37.268Z,3.28
2023-04-16T16:03:06.422Z,2.95
2023-04-16T16:05:35.154Z,3.55
2023-04-16T16:08:03.784Z,1.88
2023-04-16T16:10:34.034Z,2.92
2023-04-16T16:13:08.002Z,2.05
2023-04-16T16:15:36.937Z,1.85
2023-04-16T16:18:06.748Z,2.63
2023-04-16T16:20:36.709Z,2.08
2023-04-16T16:23:05.516Z,2.15
2023-04-16T16:25:35.577Z,2.63
2023-04-16T16:28:06.741Z,2.80
2023-04-16T16:30:35.607Z,2.53
2023-04-16T16:33:04.666Z,2.65
2023-04-16T16:35:33.309Z,2.30
2023-04-16T16:38:02.058Z,3.38
2023-04-16T16:40:30.622Z,2.40
2023-04-16T16:43:01.441Z,2.15
2023-04-16T16:45:30.782Z,2.92
2023-04-16T16:47:59.426Z,3.00
2023-04-16T16:50:28.152Z,3.05
2023-04-16T16:52:57.967Z,2.65
2023-04-16T16:55:26.812Z,4.10
2023-04-16T16:57:56.155Z,2.10
2023-04-16T17:00:26.738Z,3.50
2023-04-16T17:02:55.491Z,3.28
2023-04-16T17:05:25.182Z,2.22
2023-04-16T17:07:55.131Z,2.05
2023-04-16T17:10:24.415Z,2.38
2023-04-16T17:12:53.523Z,3.22
2023-04-16T17:15:22.323Z,2.80
2023-04-16T17:17:52.657Z,2.30
2023-04-16T17:20:21.510Z,3.45
2023-04-16T17:22:51.238Z,2.30
2023-04-16T17:25:20.445Z,2.95
2023-04-16T17:27:49.378Z,2.28
2023-04-16T17:30:18.093Z,2.55
2023-04-16T17:32:46.902Z,4.28
2023-04-16T17:35:17.248Z,2.95
2023-04-16T17:37:49.066Z,4.80
2023-04-16T17:40:18.559Z,3.00
2023-04-16T17:42:47.279Z,5.38
2023-04-16T17:45:16.117Z,5.15
2023-04-16T17:47:45.060Z,4.22
2023-04-16T17:50:14.082Z,2.92
2023-04-16T17:52:44.679Z,3.83
2023-04-16T17:55:13.728Z,5.65
2023-04-16T17:57:42.576Z,5.10
2023-04-16T18:00:14.508Z,5.72
2023-04-16T18:02:43.907Z,4.78
2023-04-16T18:05:12.862Z,4.45
2023-04-16T18:07:42.004Z,6.15
2023-04-16T18:10:12.640Z,6.43
2023-04-16T18:12:41.708Z,7.43
2023-04-16T18:15:11.527Z,4.93
2023-04-16T18:17:40.666Z,7.53
2023-04-16T18:20:12.636Z,5.50
2023-04-16T18:22:41.613Z,7.68
2023-04-16T18:25:12.135Z,6.35
2023-04-16T18:27:41.822Z,6.97
2023-04-16T18:30:19.959Z,5.22
2023-04-16T18:33:11.461Z,7.07
2023-04-16T18:35:41.469Z,4.32
2023-04-16T18:38:10.562Z,5.97
2023-04-16T18:40:41.733Z,6.35
2023-04-16T18:43:13.255Z,3.53
2023-04-16T18:45:42.922Z,3.70
2023-04-16T18:48:13.316Z,3.17
2023-04-16T18:50:41.660Z,5.35
2023-04-16T18:53:10.179Z,5.18
2023-04-16T18:55:38.607Z,4.50
2023-04-16T18:58:09.016Z,4.65
2023-04-16T19:00:37.943Z,4.72
2023-04-16T19:03:07.772Z,5.47
2023-04-16T19:05:36.544Z,7.10
2023-04-16T19:08:05.496Z,8.48
2023-04-16T19:10:34.207Z,8.82
2023-04-16T19:13:05.536Z,8.55
2023-04-16T19:15:36.446Z,9.10
2023-04-16T19:18:08.686Z,10.38
2023-04-16T19:20:45.516Z,5.57
2023-04-16T19:23:16.684Z,8.15
2023-04-16T19:25:46.437Z,7.35
2023-04-16T19:28:18.516Z,8.85
2023-04-16T19:30:54.518Z,6.53
2023-04-16T19:33:31.598Z,4.95
2023-04-16T19:36:04.104Z,3.30
2023-04-16T19:38:32.606Z,2.88
2023-04-16T19:41:06.313Z,2.45
2023-04-16T19:43:39.240Z,3.58
2023-04-16T19:46:09.548Z,5.60
2023-04-16T19:48:40.528Z,4.57
2023-04-16T19:51:11.263Z,3.58
2023-04-16T19:53:41.256Z,4.43
2023-04-16T19:56:10.089Z,5.00
2023-04-16T19:58:41.284Z,4.10
2023-04-16T20:01:32.861Z,3.72
2023-04-16T20:04:03.460Z,3.72
2023-04-16T20:06:32.490Z,5.53
2023-04-16T20:09:01.609Z,3.05
2023-04-16T20:11:31.906Z,3.83
2023-04-16T20:14:03.465Z,4.72
2023-04-16T20:16:38.958Z,3.03
2023-04-16T20:19:10.776Z,4.57
2023-04-16T20:21:43.369Z,3.40
2023-04-16T20:24:15.573Z,3.72
2023-04-16T20:26:59.828Z,3.90
2023-04-16T20:29:28.724Z,3.08
2023-04-16T20:32:03.124Z,3.65
2023-04-16T20:34:31.775Z,2.88
2023-04-16T20:37:00.859Z,2.72
2023-04-16T20:39:42.641Z,3.80
2023-04-16T20:42:16.934Z,2.38
2023-04-16T20:44:51.670Z,3.20
2023-04-16T20:47:22.891Z,3.13
2023-04-16T20:49:53.053Z,3.90
2023-04-16T20:52:24.634Z,4.13
2023-04-16T20:54:53.854Z,4.70
2023-04-16T20:57:22.630Z,5.07
2023-04-16T20:59:51.530Z,4.60
2023-04-16T21:02:23.907Z,5.10
2023-04-16T21:04:55.742Z,2.92
2023-04-16T21:07:24.634Z,3.40
2023-04-16T21:09:53.434Z,4.32
2023-04-16T21:12:22.168Z,6.15
2023-04-16T21:14:51.040Z,3.63
2023-04-16T21:17:19.765Z,3.33
2023-04-16T21:19:50.171Z,4.70
2023-04-16T21:22:18.849Z,4.45
2023-04-16T21:24:47.265Z,3.92
2023-04-16T21:27:15.803Z,3.25
2023-04-16T21:29:44.529Z,4.38
2023-04-16T21:32:13.350Z,4.15
2023-04-16T21:34:41.681Z,4.50
2023-04-16T21:37:11.641Z,4.65
2023-04-16T21:39:40.668Z,4.95
2023-04-16T21:42:09.486Z,6.13
2023-04-16T21:44:37.814Z,5.18
2023-04-16T21:47:06.701Z,4.63
2023-04-16T21:49:35.675Z,5.38
2023-04-16T21:52:04.173Z,3.83
2023-04-16T21:54:34.521Z,4.90
2023-04-16T21:57:03.397Z,5.60
2023-04-16T21:59:32.412Z,5.35
2023-04-16T22:02:01.311Z,5.45
2023-04-16T22:04:37.275Z,5.65
2023-04-16T22:07:06.019Z,5.35
2023-04-16T22:09:36.280Z,4.63
2023-04-16T22:12:07.005Z,4.15
2023-04-16T22:14:36.328Z,4.90
2023-04-16T22:17:04.970Z,5.00
2023-04-16T22:19:34.895Z,4.28
2023-04-16T22:22:03.576Z,5.13
2023-04-16T22:24:33.675Z,4.72
2023-04-16T22:27:04.347Z,4.88
2023-04-16T22:29:33.581Z,4.90
2023-04-16T22:32:02.389Z,3.88
2023-04-16T22:34:31.120Z,3.78
2023-04-16T22:37:01.454Z,4.60
2023-04-16T22:39:30.888Z,4.00
2023-04-16T22:41:59.846Z,3.42
2023-04-16T22:44:30.317Z,3.80
2023-04-16T22:46:59.341Z,4.45
2023-04-16T22:49:33.123Z,3.78
2023-04-16T22:52:03.009Z,4.35
2023-04-16T22:54:31.968Z,3.60
2023-04-16T22:57:01.108Z,4.28
2023-04-16T22:59:31.674Z,4.05
2023-04-16T23:02:00.249Z,3.35
2023-04-16T23:04:29.035Z,4.00
2023-04-16T23:06:57.801Z,4.68
2023-04-16T23:09:26.246Z,5.78
2023-04-16T23:11:55.034Z,4.05
2023-04-16T23:14:24.157Z,4.35
2023-04-16T23:16:54.348Z,5.78
2023-04-16T23:19:22.815Z,3.88
2023-04-16T23:21:51.856Z,4.65
2023-04-16T23:24:20.485Z,4.72
2023-04-16T23:26:52.515Z,5.50
2023-04-16T23:29:21.591Z,3.72
2023-04-16T23:31:50.208Z,4.43
2023-04-16T23:34:21.114Z,4.63
2023-04-16T23:36:50.149Z,4.72
2023-04-16T23:39:19.219Z,5.43
2023-04-16T23:41:47.592Z,5.07
2023-04-16T23:44:16.530Z,5.05
2023-04-16T23:46:45.327Z,4.55
2023-04-16T23:49:13.856Z,5.68
2023-04-16T23:51:44.329Z,4.93
2023-04-16T23:54:13.016Z,5.30
2023-04-16T23:56:41.848Z,5.38
2023-04-16T23:59:11.141Z,4.50
